createdAt,value
2022-11-26T00:02:30.034Z,43.00
2022-11-26T00:05:01.316Z,40.47
2022-11-26T00:07:36.325Z,40.43
2022-11-26T00:10:09.953Z,34.70
2022-11-26T00:12:38.843Z,33.40
2022-11-26T00:15:16.663Z,34.20
2022-11-26T00:17:45.310Z,41.63
2022-11-26T00:20:14.673Z,41.83
2022-11-26T00:22:48.514Z,36.03
2022-11-26T00:25:23.936Z,36.83
2022-11-26T00:27:55.698Z,36.97
2022-11-26T00:30:26.575Z,35.80
2022-11-26T00:32:56.764Z,34.87
2022-11-26T00:35:25.584Z,38.73
2022-11-26T00:37:58.055Z,34.33
2022-11-26T00:40:35.166Z,40.50
2022-11-26T00:43:04.121Z,42.03
2022-11-26T00:45:33.369Z,45.17
2022-11-26T00:48:02.917Z,47.43
2022-11-26T00:50:35.506Z,45.23
2022-11-26T00:53:04.477Z,42.87
2022-11-26T00:55:37.303Z,43.13
2022-11-26T00:58:07.637Z,46.63
2022-11-26T01:00:36.925Z,42.93
2022-11-26T01:03:05.637Z,40.00
2022-11-26T01:05:34.674Z,43.27
2022-11-26T01:08:16.607Z,40.60
2022-11-26T01:10:46.693Z,38.13
2022-11-26T01:13:22.937Z,39.47
2022-11-26T01:15:51.891Z,41.70
2022-11-26T01:18:22.439Z,42.40
2022-11-26T01:20:52.049Z,49.30
2022-11-26T01:23:21.525Z,39.40
2022-11-26T01:25:51.626Z,44.27
2022-11-26T01:28:20.885Z,39.03
2022-11-26T01:30:49.539Z,38.67
2022-11-26T01:33:18.150Z,46.43
2022-11-26T01:35:47.149Z,38.20
2022-11-26T01:38:16.793Z,48.33
2022-11-26T01:41:00.924Z,46.97
2022-11-26T01:43:33.445Z,43.00
2022-11-26T01:46:02.049Z,50.77
2022-11-26T01:48:34.199Z,47.00
2022-11-26T01:51:07.514Z,50.43
2022-11-26T01:53:44.814Z,43.83
2022-11-26T01:56:22.351Z,42.47
2022-11-26T01:58:55.579Z,40.73
2022-11-26T02:01:24.430Z,43.40
2022-11-26T02:04:01.541Z,44.07
2022-11-26T02:06:33.666Z,40.73
2022-11-26T02:09:05.121Z,39.63
2022-11-26T02:11:35.256Z,40.00
2022-11-26T02:14:07.496Z,33.60
2022-11-26T02:17:00.897Z,34.93
2022-11-26T02:19:58.630Z,38.30
2022-11-26T02:22:48.499Z,35.03
2022-11-26T02:25:21.745Z,33.17
2022-11-26T02:28:16.804Z,33.63
2022-11-26T02:30:50.752Z,33.27
2022-11-26T02:33:25.837Z,35.73
2022-11-26T02:35:59.894Z,32.73
2022-11-26T02:38:30.638Z,37.87
2022-11-26T02:40:59.137Z,32.10
2022-11-26T02:43:28.950Z,32.30
2022-11-26T02:46:03.289Z,35.77
2022-11-26T02:48:35.736Z,40.73
2022-11-26T02:51:07.418Z,31.90
2022-11-26T02:53:38.411Z,35.00
2022-11-26T02:56:10.175Z,37.57
2022-11-26T02:58:39.163Z,42.47
2022-11-26T03:01:13.985Z,42.77
2022-11-26T03:03:47.919Z,35.43
2022-11-26T03:06:17.817Z,37.50
2022-11-26T03:08:47.095Z,31.67
2022-11-26T03:11:15.647Z,34.17
2022-11-26T03:13:44.418Z,33.37
2022-11-26T03:16:14.386Z,38.77
2022-11-26T03:18:43.341Z,39.77
2022-11-26T03:21:12.040Z,41.43
2022-11-26T03:23:40.686Z,45.33
2022-11-26T03:26:09.514Z,35.17
2022-11-26T03:28:38.509Z,37.30
2022-11-26T03:31:07.346Z,39.17
2022-11-26T03:33:37.529Z,31.87
2022-11-26T03:36:06.665Z,33.63
2022-11-26T03:38:35.256Z,33.20
2022-11-26T03:41:06.943Z,34.07
2022-11-26T03:43:35.508Z,32.40
2022-11-26T03:46:04.158Z,38.53
2022-11-26T03:48:32.817Z,38.50
2022-11-26T03:51:02.793Z,35.60
2022-11-26T03:53:31.383Z,37.63
2022-11-26T03:56:00.048Z,39.87
2022-11-26T03:58:28.961Z,28.47
2022-11-26T04:00:57.435Z,44.17
2022-11-26T04:03:26.072Z,45.33
2022-11-26T04:05:54.617Z,43.27
2022-11-26T04:08:24.516Z,46.87
2022-11-26T04:10:52.996Z,44.40
2022-11-26T04:13:23.684Z,36.67
2022-11-26T04:15:52.495Z,42.63
2022-11-26T04:18:21.081Z,36.63
2022-11-26T04:20:53.011Z,40.03
2022-11-26T04:23:23.920Z,27.63
2022-11-26T04:25:52.450Z,30.80
2022-11-26T04:28:20.974Z,29.77
2022-11-26T04:30:49.501Z,34.00
2022-11-26T04:33:18.110Z,36.30
2022-11-26T04:35:46.953Z,33.20
2022-11-26T04:38:15.504Z,33.53
2022-11-26T04:40:45.417Z,27.07
2022-11-26T04:43:13.934Z,30.60
2022-11-26T04:45:42.795Z,26.93
2022-11-26T04:48:11.411Z,31.53
2022-11-26T04:50:40.019Z,29.47
2022-11-26T04:53:08.792Z,28.47
2022-11-26T04:55:37.685Z,24.50
2022-11-26T04:58:07.546Z,28.20
2022-11-26T05:00:36.039Z,29.37
2022-11-26T05:03:04.563Z,26.40
2022-11-26T05:05:33.109Z,29.57
2022-11-26T05:08:01.662Z,37.73
2022-11-26T05:10:30.519Z,23.73
2022-11-26T05:12:59.023Z,28.17
2022-11-26T05:15:28.979Z,30.87
2022-11-26T05:17:57.473Z,30.37
2022-11-26T05:20:26.246Z,35.50
2022-11-26T05:22:54.802Z,26.80
2022-11-26T05:25:23.330Z,26.13
2022-11-26T05:27:51.863Z,31.10
2022-11-26T05:30:20.938Z,28.27
2022-11-26T05:32:50.917Z,31.80
2022-11-26T05:35:19.498Z,29.23
2022-11-26T05:37:47.986Z,31.40
2022-11-26T05:40:16.928Z,26.47
2022-11-26T05:42:45.423Z,28.23
2022-11-26T05:45:14.093Z,22.43
2022-11-26T05:47:42.583Z,26.50
2022-11-26T05:50:13.359Z,24.87
2022-11-26T05:52:41.980Z,26.80
2022-11-26T05:55:11.591Z,23.33
2022-11-26T05:57:40.056Z,29.73
2022-11-26T06:00:10.661Z,27.73
2022-11-26T06:02:39.540Z,25.37
2022-11-26T06:05:09.504Z,25.77
2022-11-26T06:07:44.541Z,22.47
2022-11-26T06:10:14.109Z,25.83
2022-11-26T06:12:42.732Z,23.30
2022-11-26T06:15:12.105Z,27.00
2022-11-26T06:17:40.704Z,27.57
2022-11-26T06:20:10.146Z,24.43
2022-11-26T06:22:41.128Z,30.47
2022-11-26T06:25:12.246Z,24.47
2022-11-26T06:27:41.678Z,24.57
2022-11-26T06:30:12.420Z,28.43
2022-11-26T06:32:40.880Z,22.93
2022-11-26T06:35:10.467Z,27.03
2022-11-26T06:37:40.448Z,20.30
2022-11-26T06:40:12.208Z,23.10
2022-11-26T06:42:40.695Z,25.40
2022-11-26T06:45:10.543Z,22.27
2022-11-26T06:47:38.981Z,28.60
2022-11-26T06:50:10.828Z,27.83
2022-11-26T06:52:41.101Z,24.67
2022-11-26T06:55:10.653Z,30.07
2022-11-26T06:57:39.261Z,26.97
2022-11-26T07:00:09.232Z,28.37
2022-11-26T07:02:39.372Z,28.20
2022-11-26T07:05:08.598Z,28.57
2022-11-26T07:07:39.014Z,27.70
2022-11-26T07:10:09.986Z,27.73
2022-11-26T07:12:38.537Z,30.20
2022-11-26T07:15:07.948Z,31.97
2022-11-26T07:17:36.425Z,31.90
2022-11-26T07:20:05.622Z,32.97
2022-11-26T07:22:35.460Z,32.97
2022-11-26T07:25:06.980Z,29.70
2022-11-26T07:27:39.770Z,32.50
2022-11-26T07:30:09.551Z,30.67
2022-11-26T07:32:38.044Z,29.57
2022-11-26T07:35:07.748Z,43.93
2022-11-26T07:37:36.380Z,41.37
2022-11-26T07:40:06.128Z,38.80
2022-11-26T07:42:35.227Z,36.53
2022-11-26T07:45:05.854Z,29.13
2022-11-26T07:47:34.493Z,30.90
2022-11-26T07:50:03.018Z,38.27
2022-11-26T07:52:31.552Z,39.90
2022-11-26T07:55:00.025Z,33.60
2022-11-26T07:57:28.685Z,35.93
2022-11-26T07:59:57.600Z,38.97
2022-11-26T08:02:27.702Z,40.90
2022-11-26T08:04:56.407Z,39.93
2022-11-26T08:07:29.219Z,40.90
2022-11-26T08:09:58.777Z,44.67
2022-11-26T08:12:27.734Z,43.13
2022-11-26T08:14:56.643Z,41.57
2022-11-26T08:17:26.772Z,51.20
2022-11-26T08:19:55.302Z,52.40
2022-11-26T08:22:23.831Z,47.40
2022-11-26T08:24:52.470Z,50.27
2022-11-26T08:27:21.108Z,47.97
2022-11-26T08:29:49.929Z,50.97
2022-11-26T08:32:18.520Z,49.93
2022-11-26T08:34:48.517Z,54.57
2022-11-26T08:37:17.056Z,42.00
2022-11-26T08:39:45.768Z,40.63
2022-11-26T08:42:14.456Z,41.70
2022-11-26T08:44:43.317Z,40.40
2022-11-26T08:47:12.125Z,52.77
2022-11-26T08:49:40.875Z,51.47
2022-11-26T08:52:11.237Z,58.77
2022-11-26T08:54:44.739Z,52.73
2022-11-26T08:57:14.077Z,60.57
2022-11-26T08:59:43.195Z,53.83
2022-11-26T09:02:17.368Z,49.83
2022-11-26T09:04:47.287Z,48.33
2022-11-26T09:07:17.439Z,61.03
2022-11-26T09:09:46.556Z,55.63
2022-11-26T09:12:15.189Z,66.37
2022-11-26T09:14:43.968Z,56.60
2022-11-26T09:17:13.366Z,55.70
2022-11-26T09:19:42.431Z,58.30
2022-11-26T09:22:11.028Z,56.87
2022-11-26T09:24:41.510Z,59.80
2022-11-26T09:27:11.951Z,68.20
2022-11-26T09:29:40.968Z,54.10
2022-11-26T09:32:24.355Z,57.30
2022-11-26T09:34:54.869Z,43.03
2022-11-26T09:37:23.533Z,57.43
2022-11-26T09:39:57.841Z,51.83
2022-11-26T09:42:39.121Z,47.00
2022-11-26T09:45:19.805Z,54.67
2022-11-26T09:47:54.827Z,49.50
2022-11-26T09:50:31.836Z,48.47
2022-11-26T09:53:03.664Z,49.13
2022-11-26T09:55:35.652Z,47.77
2022-11-26T09:58:12.753Z,47.67
2022-11-26T10:00:44.111Z,37.77
2022-11-26T10:03:16.031Z,42.30
2022-11-26T10:05:51.016Z,42.77
2022-11-26T10:08:47.665Z,38.33
2022-11-26T10:11:25.493Z,43.17
2022-11-26T10:14:08.474Z,36.63
2022-11-26T10:16:45.684Z,36.63
2022-11-26T10:19:23.973Z,39.80
2022-11-26T10:21:59.824Z,40.37
2022-11-26T10:24:33.450Z,37.80
2022-11-26T10:27:12.465Z,40.63
2022-11-26T10:29:43.389Z,43.07
2022-11-26T10:32:17.621Z,47.77
2022-11-26T10:34:51.467Z,42.00
2022-11-26T10:37:21.941Z,42.73
2022-11-26T10:39:59.955Z,41.53
2022-11-26T10:42:42.944Z,41.50
2022-11-26T10:45:21.030Z,33.27
2022-11-26T10:47:49.970Z,34.57
2022-11-26T10:53:22.222Z,51.70
2022-11-26T10:55:52.796Z,36.27
2022-11-26T10:58:25.716Z,30.40
2022-11-26T11:01:01.290Z,28.50
2022-11-26T11:04:06.110Z,22.77
2022-11-26T11:06:38.557Z,22.20
2022-11-26T11:09:26.177Z,26.23
2022-11-26T11:12:20.438Z,29.17
2022-11-26T11:14:51.911Z,30.37
2022-11-26T11:17:33.959Z,28.83
2022-11-26T11:20:13.176Z,22.13
2022-11-26T11:22:41.959Z,24.67
2022-11-26T11:25:23.729Z,19.97
2022-11-26T11:27:52.759Z,28.40
2022-11-26T11:30:31.915Z,16.43
2022-11-26T11:33:13.924Z,20.57
2022-11-26T11:35:42.944Z,42.73
2022-11-26T11:38:24.077Z,27.10
2022-11-26T11:40:53.132Z,25.17
2022-11-26T11:43:23.864Z,20.33
2022-11-26T11:46:09.020Z,22.03
2022-11-26T11:48:50.026Z,19.00
2022-11-26T11:51:29.718Z,16.47
2022-11-26T11:54:12.170Z,18.07
2022-11-26T11:56:45.549Z,18.17
2022-11-26T11:59:47.771Z,17.57
2022-11-26T12:02:44.482Z,20.40
2022-11-26T12:05:48.495Z,18.53
2022-11-26T12:08:33.248Z,18.33
2022-11-26T12:11:16.715Z,14.00
2022-11-26T12:13:53.532Z,21.37
2022-11-26T12:16:26.222Z,19.80
2022-11-26T12:19:02.197Z,13.23
2022-11-26T12:21:36.516Z,16.17
2022-11-26T12:24:10.609Z,14.67
2022-11-26T12:26:42.216Z,15.40
2022-11-26T12:29:15.841Z,18.70
2022-11-26T12:31:48.203Z,16.37
2022-11-26T12:34:25.209Z,16.53
2022-11-26T12:36:57.781Z,13.90
2022-11-26T12:39:53.192Z,14.43
2022-11-26T12:42:29.777Z,22.37
2022-11-26T12:45:18.027Z,15.60
2022-11-26T12:47:53.416Z,17.57
2022-11-26T12:50:33.692Z,15.33
2022-11-26T12:53:15.806Z,18.17
2022-11-26T12:55:53.495Z,17.67
2022-11-26T12:58:28.369Z,17.43
2022-11-26T13:00:57.155Z,23.77
2022-11-26T13:03:29.940Z,14.80
2022-11-26T13:06:04.995Z,13.67
2022-11-26T13:08:45.109Z,19.30
2022-11-26T13:11:27.891Z,19.90
2022-11-26T13:14:04.235Z,21.77
2022-11-26T13:16:39.624Z,25.70
2022-11-26T13:19:15.684Z,19.57
2022-11-26T13:22:08.495Z,17.17
2022-11-26T13:24:50.358Z,20.50
2022-11-26T13:27:41.692Z,20.77
2022-11-26T13:30:21.366Z,25.23
2022-11-26T13:33:24.266Z,21.23
2022-11-26T13:36:21.010Z,22.03
2022-11-26T13:39:10.682Z,30.20
2022-11-26T13:42:10.672Z,27.53
2022-11-26T13:45:06.227Z,25.13
2022-11-26T13:47:38.708Z,26.17
2022-11-26T13:50:13.275Z,22.80
2022-11-26T13:52:48.167Z,21.90
2022-11-26T13:55:23.469Z,16.33
2022-11-26T13:57:55.342Z,21.07
2022-11-26T14:00:27.589Z,17.60
2022-11-26T14:02:56.966Z,20.07
2022-11-26T14:05:46.183Z,20.63
2022-11-26T14:08:38.491Z,19.43
2022-11-26T14:11:09.679Z,21.33
2022-11-26T14:13:40.067Z,26.83
2022-11-26T14:16:09.783Z,17.87
2022-11-26T14:19:08.789Z,19.43
2022-11-26T14:22:03.915Z,16.20
2022-11-26T14:25:04.222Z,16.60
2022-11-26T14:27:36.538Z,24.60
2022-11-26T14:30:24.166Z,15.57
2022-11-26T14:33:07.203Z,20.33
2022-11-26T14:35:41.186Z,19.43
2022-11-26T14:38:26.865Z,17.30
2022-11-26T14:41:00.480Z,21.47
2022-11-26T14:43:31.655Z,19.60
2022-11-26T14:46:13.125Z,23.50
2022-11-26T14:48:48.447Z,18.97
2022-11-26T14:51:25.132Z,22.73
2022-11-26T14:53:55.087Z,26.17
2022-11-26T14:56:28.419Z,13.80
2022-11-26T14:59:03.084Z,19.50
2022-11-26T15:01:33.811Z,20.50
2022-11-26T15:04:09.337Z,18.20
2022-11-26T15:06:43.449Z,20.30
2022-11-26T15:09:15.923Z,24.80
2022-11-26T15:11:51.710Z,26.27
2022-11-26T15:14:27.441Z,27.63
2022-11-26T15:17:02.458Z,21.83
2022-11-26T15:19:36.497Z,32.97
2022-11-26T15:22:08.568Z,30.57
2022-11-26T15:24:38.170Z,37.30
2022-11-26T15:27:07.053Z,23.53
2022-11-26T15:29:41.828Z,19.67
2022-11-26T15:32:26.443Z,17.63
2022-11-26T15:34:56.561Z,20.50
2022-11-26T15:37:27.409Z,16.37
2022-11-26T15:40:11.368Z,15.87
2022-11-26T15:42:43.414Z,18.37
2022-11-26T15:45:31.279Z,13.77
2022-11-26T15:48:05.696Z,17.53
2022-11-26T15:50:38.556Z,15.37
2022-11-26T15:53:16.767Z,15.80
2022-11-26T15:55:49.025Z,13.37
2022-11-26T15:58:26.298Z,61.73
2022-11-26T16:01:06.304Z,46.60
2022-11-26T16:03:43.715Z,41.63
2022-11-26T16:06:29.762Z,36.83
2022-11-26T16:09:08.678Z,30.87
2022-11-26T16:11:41.304Z,27.67
2022-11-26T16:14:30.791Z,30.47
2022-11-26T16:17:08.102Z,22.77
2022-11-26T16:19:38.831Z,23.00
2022-11-26T16:22:08.536Z,20.03
2022-11-26T16:24:41.067Z,20.80
2022-11-26T16:27:29.897Z,19.47
2022-11-26T16:30:08.805Z,15.40
2022-11-26T16:32:39.216Z,14.57
2022-11-26T16:35:37.570Z,19.20
2022-11-26T16:38:02.077Z,17.60
2022-11-26T16:40:34.835Z,17.37
2022-11-26T16:43:04.271Z,18.80
2022-11-26T16:45:33.762Z,17.67
2022-11-26T16:48:04.606Z,16.63
2022-11-26T16:50:36.731Z,15.03
2022-11-26T16:53:09.026Z,19.17
2022-11-26T16:55:44.367Z,15.13
2022-11-26T16:58:20.945Z,19.80
2022-11-26T17:00:51.459Z,16.23
2022-11-26T17:03:23.934Z,17.20
2022-11-26T17:05:59.870Z,17.80
2022-11-26T17:08:32.897Z,16.93
2022-11-26T17:11:06.889Z,15.20
2022-11-26T17:13:35.970Z,14.90
2022-11-26T17:16:17.471Z,16.77
2022-11-26T17:18:51.274Z,17.70
2022-11-26T17:21:30.480Z,21.97
2022-11-26T17:24:02.701Z,17.57
2022-11-26T17:26:33.210Z,17.07
2022-11-26T17:29:08.614Z,12.30
2022-11-26T17:31:37.692Z,20.80
2022-11-26T17:34:08.255Z,19.30
2022-11-26T17:36:38.658Z,21.30
2022-11-26T17:39:09.113Z,34.13
2022-11-26T17:41:47.643Z,30.47
2022-11-26T17:44:19.609Z,28.73
2022-11-26T17:47:17.735Z,21.77
2022-11-26T17:49:40.958Z,21.00
2022-11-26T17:52:11.403Z,15.63
2022-11-26T17:54:42.600Z,14.53
2022-11-26T17:57:18.226Z,16.23
2022-11-26T17:59:49.913Z,14.60
2022-11-26T18:02:25.112Z,11.70
2022-11-26T18:04:57.696Z,14.23
2022-11-26T18:07:32.865Z,13.40
2022-11-26T18:10:04.102Z,13.17
2022-11-26T18:12:36.294Z,13.97
2022-11-26T18:15:07.991Z,15.17
2022-11-26T18:17:48.423Z,17.30
2022-11-26T18:20:30.426Z,18.53
2022-11-26T18:23:05.616Z,20.83
2022-11-26T18:25:39.534Z,15.37
2022-11-26T18:28:12.156Z,16.43
2022-11-26T18:30:46.320Z,14.27
2022-11-26T18:33:16.323Z,18.20
2022-11-26T18:35:47.765Z,29.23
2022-11-26T18:38:17.111Z,21.30
2022-11-26T18:40:47.116Z,15.73
2022-11-26T18:43:29.824Z,14.77
2022-11-26T18:46:07.342Z,17.83
2022-11-26T18:48:44.179Z,12.83
2022-11-26T18:51:16.523Z,13.73
2022-11-26T18:54:00.122Z,14.43
2022-11-26T18:56:34.451Z,13.77
2022-11-26T18:59:06.208Z,17.30
2022-11-26T19:01:35.984Z,15.33
2022-11-26T19:04:10.138Z,16.43
2022-11-26T19:06:48.774Z,20.47
2022-11-26T19:09:19.418Z,15.77
2022-11-26T19:11:51.150Z,18.20
2022-11-26T19:14:24.401Z,15.97
2022-11-26T19:17:13.609Z,16.10
2022-11-26T19:19:45.966Z,13.97
2022-11-26T19:22:19.505Z,16.37
2022-11-26T19:24:51.400Z,19.87
2022-11-26T19:27:22.805Z,18.77
2022-11-26T19:29:52.221Z,18.23
2022-11-26T19:32:32.438Z,14.77
2022-11-26T19:35:08.055Z,15.90
2022-11-26T19:37:43.028Z,14.50
2022-11-26T19:40:20.376Z,17.47
2022-11-26T19:43:00.072Z,14.00
2022-11-26T19:45:37.676Z,14.10
2022-11-26T19:48:12.162Z,20.50
2022-11-26T19:50:49.156Z,20.90
2022-11-26T19:53:30.088Z,17.03
2022-11-26T19:56:08.560Z,18.63
2022-11-26T19:58:39.162Z,18.77
2022-11-26T20:01:13.601Z,26.03
2022-11-26T20:03:47.398Z,28.10
2022-11-26T20:06:19.089Z,25.37
2022-11-26T20:09:00.720Z,33.67
2022-11-26T20:11:34.760Z,31.83
2022-11-26T20:14:06.229Z,28.10
2022-11-26T20:16:37.079Z,28.20
2022-11-26T20:19:08.620Z,23.23
2022-11-26T20:21:42.820Z,23.47
2022-11-26T20:24:30.395Z,26.03
2022-11-26T20:27:09.308Z,25.30
2022-11-26T20:29:41.146Z,30.60
2022-11-26T20:32:16.407Z,22.97
2022-11-26T20:34:49.258Z,22.60
2022-11-26T20:37:25.728Z,25.47
2022-11-26T20:39:56.123Z,31.30
2022-11-26T20:42:25.254Z,28.70
2022-11-26T20:44:56.338Z,29.37
2022-11-26T20:47:27.968Z,32.90
2022-11-26T20:49:57.522Z,28.30
2022-11-26T20:52:33.864Z,25.67
2022-11-26T20:55:09.563Z,28.43
2022-11-26T20:57:40.230Z,22.20
2022-11-26T21:00:17.236Z,20.67
2022-11-26T21:02:48.738Z,24.33
2022-11-26T21:05:18.552Z,22.93
2022-11-26T21:07:48.507Z,18.43
2022-11-26T21:10:22.989Z,22.33
2022-11-26T21:12:54.164Z,20.47
2022-11-26T21:15:25.801Z,25.57
2022-11-26T21:18:02.883Z,19.10
2022-11-26T21:20:42.136Z,18.60
2022-11-26T21:23:15.753Z,17.67
2022-11-26T21:25:46.432Z,15.07
2022-11-26T21:28:20.789Z,15.57
2022-11-26T21:30:51.118Z,13.77
2022-11-26T21:33:22.164Z,19.80
2022-11-26T21:35:51.542Z,15.10
2022-11-26T21:38:26.668Z,17.23
2022-11-26T21:41:11.677Z,19.50
2022-11-26T21:43:41.104Z,18.47
2022-11-26T21:46:15.210Z,24.57
2022-11-26T21:48:44.570Z,19.17
2022-11-26T21:51:19.171Z,20.37
2022-11-26T21:53:50.045Z,16.37
2022-11-26T21:56:23.148Z,15.30
2022-11-26T21:58:53.125Z,14.53
2022-11-26T22:01:25.333Z,15.47
2022-11-26T22:03:56.928Z,15.87
2022-11-26T22:06:34.904Z,18.33
2022-11-26T22:09:09.065Z,17.73
2022-11-26T22:11:44.218Z,20.80
2022-11-26T22:14:15.439Z,16.50
2022-11-26T22:16:48.692Z,18.70
2022-11-26T22:19:17.884Z,14.77
2022-11-26T22:21:54.645Z,16.00
2022-11-26T22:24:23.958Z,18.97
2022-11-26T22:27:04.097Z,15.93
2022-11-26T22:29:36.075Z,17.13
2022-11-26T22:32:12.883Z,15.37
2022-11-26T22:34:43.088Z,13.37
2022-11-26T22:37:12.328Z,11.10
2022-11-26T22:39:42.154Z,13.63
2022-11-26T22:42:16.146Z,16.33
2022-11-26T22:44:48.793Z,13.77
2022-11-26T22:47:25.011Z,14.63
2022-11-26T22:49:55.298Z,16.63
2022-11-26T22:52:27.911Z,16.47
2022-11-26T22:54:59.484Z,15.90
2022-11-26T22:57:30.009Z,16.63
2022-11-26T23:00:00.373Z,17.03
2022-11-26T23:02:31.801Z,14.80
2022-11-26T23:05:02.200Z,15.50
2022-11-26T23:07:35.215Z,15.63
2022-11-26T23:10:06.249Z,12.63
2022-11-26T23:12:39.543Z,18.80
2022-11-26T23:15:13.237Z,15.53
2022-11-26T23:17:42.837Z,12.77
2022-11-26T23:20:18.456Z,21.17
2022-11-26T23:22:47.756Z,15.60
2022-11-26T23:25:16.747Z,16.67
2022-11-26T23:27:47.117Z,16.53
2022-11-26T23:30:17.345Z,13.60
2022-11-26T23:32:46.120Z,15.23
2022-11-26T23:35:15.860Z,16.07
2022-11-26T23:37:45.316Z,12.03
2022-11-26T23:40:16.024Z,14.73
2022-11-26T23:42:47.819Z,15.27
2022-11-26T23:45:16.819Z,13.50
2022-11-26T23:47:46.174Z,15.80
2022-11-26T23:50:15.318Z,13.50
2022-11-26T23:52:44.666Z,15.00
2022-11-26T23:55:13.301Z,12.77
2022-11-26T23:57:43.059Z,15.23
